sensor_id;sensor_type;location;lat;lon;timestamp;temperature;humidity
38746;DHT22;24488;0.000;0.000;2022-11-15T00:01:18;20.50;77.20
38746;DHT22;24488;0.000;0.000;2022-11-15T00:03:44;20.20;76.80
38746;DHT22;24488;0.000;0.000;2022-11-15T00:06:10;20.40;77.20
38746;DHT22;24488;0.000;0.000;2022-11-15T00:08:35;20.30;77.00
38746;DHT22;24488;0.000;0.000;2022-11-15T00:11:02;20.20;77.00
38746;DHT22;24488;0.000;0.000;2022-11-15T00:13:28;20.40;77.00
38746;DHT22;24488;0.000;0.000;2022-11-15T00:15:56;20.30;77.00
38746;DHT22;24488;0.000;0.000;2022-11-15T00:18:22;20.30;77.00
38746;DHT22;24488;0.000;0.000;2022-11-15T00:20:48;20.30;77.00
38746;DHT22;24488;0.000;0.000;2022-11-15T00:23:13;20.20;77.00
38746;DHT22;24488;0.000;0.000;2022-11-15T00:25:39;20.30;77.10
38746;DHT22;24488;0.000;0.000;2022-11-15T00:28:04;20.30;77.10
38746;DHT22;24488;0.000;0.000;2022-11-15T00:30:30;20.30;77.10
38746;DHT22;24488;0.000;0.000;2022-11-15T00:32:56;20.30;77.20
38746;DHT22;24488;0.000;0.000;2022-11-15T00:35:22;20.40;77.30
38746;DHT22;24488;0.000;0.000;2022-11-15T00:37:48;20.30;77.10
38746;DHT22;24488;0.000;0.000;2022-11-15T00:40:14;20.30;77.60
38746;DHT22;24488;0.000;0.000;2022-11-15T00:42:40;20.20;77.00
38746;DHT22;24488;0.000;0.000;2022-11-15T00:45:06;20.30;77.10
38746;DHT22;24488;0.000;0.000;2022-11-15T00:47:32;19.20;76.40
38746;DHT22;24488;0.000;0.000;2022-11-15T00:49:58;20.40;77.20
38746;DHT22;24488;0.000;0.000;2022-11-15T00:52:23;20.30;77.10
38746;DHT22;24488;0.000;0.000;2022-11-15T00:54:49;20.70;77.50
38746;DHT22;24488;0.000;0.000;2022-11-15T00:57:14;20.30;77.10
38746;DHT22;24488;0.000;0.000;2022-11-15T00:59:40;20.30;77.10
38746;DHT22;24488;0.000;0.000;2022-11-15T01:02:05;20.30;77.20
38746;DHT22;24488;0.000;0.000;2022-11-15T01:04:31;20.20;77.00
38746;DHT22;24488;0.000;0.000;2022-11-15T01:06:56;20.40;77.20
38746;DHT22;24488;0.000;0.000;2022-11-15T01:09:22;20.70;77.40
38746;DHT22;24488;0.000;0.000;2022-11-15T01:11:48;20.30;77.10
38746;DHT22;24488;0.000;0.000;2022-11-15T01:14:13;20.30;77.10
38746;DHT22;24488;0.000;0.000;2022-11-15T01:16:39;20.40;77.20
38746;DHT22;24488;0.000;0.000;2022-11-15T01:19:04;20.30;77.10
38746;DHT22;24488;0.000;0.000;2022-11-15T01:21:30;20.60;77.30
38746;DHT22;24488;0.000;0.000;2022-11-15T01:23:56;20.30;77.10
38746;DHT22;24488;0.000;0.000;2022-11-15T01:26:22;20.40;77.10
38746;DHT22;24488;0.000;0.000;2022-11-15T01:28:48;19.80;76.60
38746;DHT22;24488;0.000;0.000;2022-11-15T01:31:18;20.30;76.60
38746;DHT22;24488;0.000;0.000;2022-11-15T01:36:12;20.20;76.30
38746;DHT22;24488;0.000;0.000;2022-11-15T01:38:42;20.20;77.00
38746;DHT22;24488;0.000;0.000;2022-11-15T01:41:15;20.40;76.90
38746;DHT22;24488;0.000;0.000;2022-11-15T01:43:42;20.20;77.50
38746;DHT22;24488;0.000;0.000;2022-11-15T01:46:15;20.40;77.10
38746;DHT22;24488;0.000;0.000;2022-11-15T01:48:50;20.40;77.00
38746;DHT22;24488;0.000;0.000;2022-11-15T01:51:17;20.20;77.20
38746;DHT22;24488;0.000;0.000;2022-11-15T01:53:46;20.30;76.90
38746;DHT22;24488;0.000;0.000;2022-11-15T01:56:23;20.20;76.30
38746;DHT22;24488;0.000;0.000;2022-11-15T01:58:51;20.20;77.00
38746;DHT22;24488;0.000;0.000;2022-11-15T02:01:18;20.30;77.00
38746;DHT22;24488;0.000;0.000;2022-11-15T02:03:58;20.20;77.00
38746;DHT22;24488;0.000;0.000;2022-11-15T02:06:25;20.30;77.10
38746;DHT22;24488;0.000;0.000;2022-11-15T02:08:50;20.60;77.40
38746;DHT22;24488;0.000;0.000;2022-11-15T02:11:16;20.50;77.40
38746;DHT22;24488;0.000;0.000;2022-11-15T02:13:42;20.30;77.10
38746;DHT22;24488;0.000;0.000;2022-11-15T02:19:02;20.30;77.00
38746;DHT22;24488;0.000;0.000;2022-11-15T02:21:36;20.30;77.00
38746;DHT22;24488;0.000;0.000;2022-11-15T02:24:16;20.30;77.10
38746;DHT22;24488;0.000;0.000;2022-11-15T02:27:16;20.30;77.00
38746;DHT22;24488;0.000;0.000;2022-11-15T02:30:20;20.30;77.00
38746;DHT22;24488;0.000;0.000;2022-11-15T02:32:54;20.20;77.00
38746;DHT22;24488;0.000;0.000;2022-11-15T02:35:50;20.30;77.00
38746;DHT22;24488;0.000;0.000;2022-11-15T02:38:29;20.30;77.10
38746;DHT22;24488;0.000;0.000;2022-11-15T02:41:09;20.20;77.00
38746;DHT22;24488;0.000;0.000;2022-11-15T02:43:43;20.30;77.00
38746;DHT22;24488;0.000;0.000;2022-11-15T02:46:23;20.40;77.20
38746;DHT22;24488;0.000;0.000;2022-11-15T02:49:13;20.30;77.20
38746;DHT22;24488;0.000;0.000;2022-11-15T02:51:40;20.30;77.00
38746;DHT22;24488;0.000;0.000;2022-11-15T02:54:06;20.30;77.10
38746;DHT22;24488;0.000;0.000;2022-11-15T03:04:35;20.20;77.00
38746;DHT22;24488;0.000;0.000;2022-11-15T03:10:02;20.20;77.00
38746;DHT22;24488;0.000;0.000;2022-11-15T03:15:06;20.20;77.00
38746;DHT22;24488;0.000;0.000;2022-11-15T03:17:36;20.20;77.00
38746;DHT22;24488;0.000;0.000;2022-11-15T03:20:05;20.50;77.30
38746;DHT22;24488;0.000;0.000;2022-11-15T03:22:36;20.30;77.10
38746;DHT22;24488;0.000;0.000;2022-11-15T03:25:05;20.30;77.20
38746;DHT22;24488;0.000;0.000;2022-11-15T03:27:34;20.20;77.10
38746;DHT22;24488;0.000;0.000;2022-11-15T03:30:03;20.30;77.30
38746;DHT22;24488;0.000;0.000;2022-11-15T03:37:25;20.50;77.30
38746;DHT22;24488;0.000;0.000;2022-11-15T03:39:55;20.30;77.20
38746;DHT22;24488;0.000;0.000;2022-11-15T03:42:23;20.50;77.30
38746;DHT22;24488;0.000;0.000;2022-11-15T03:45:03;20.30;77.10
38746;DHT22;24488;0.000;0.000;2022-11-15T03:47:41;20.20;77.00
38746;DHT22;24488;0.000;0.000;2022-11-15T03:50:11;20.40;77.30
38746;DHT22;24488;0.000;0.000;2022-11-15T03:52:39;20.20;77.00
38746;DHT22;24488;0.000;0.000;2022-11-15T03:55:07;20.30;77.10
38746;DHT22;24488;0.000;0.000;2022-11-15T03:57:34;20.30;77.20
38746;DHT22;24488;0.000;0.000;2022-11-15T04:00:00;20.40;77.40
38746;DHT22;24488;0.000;0.000;2022-11-15T04:02:25;20.60;77.40
38746;DHT22;24488;0.000;0.000;2022-11-15T04:04:51;20.30;77.20
38746;DHT22;24488;0.000;0.000;2022-11-15T04:07:16;20.30;77.20
38746;DHT22;24488;0.000;0.000;2022-11-15T04:09:42;20.10;77.00
38746;DHT22;24488;0.000;0.000;2022-11-15T04:12:26;20.30;77.10
38746;DHT22;24488;0.000;0.000;2022-11-15T04:17:38;20.20;76.40
38746;DHT22;24488;0.000;0.000;2022-11-15T04:20:06;20.20;77.00
38746;DHT22;24488;0.000;0.000;2022-11-15T04:22:53;20.30;77.10
38746;DHT22;24488;0.000;0.000;2022-11-15T04:25:38;20.90;77.70
38746;DHT22;24488;0.000;0.000;2022-11-15T04:28:04;20.30;77.20
38746;DHT22;24488;0.000;0.000;2022-11-15T04:30:29;20.30;77.30
38746;DHT22;24488;0.000;0.000;2022-11-15T04:32:55;20.30;77.30
38746;DHT22;24488;0.000;0.000;2022-11-15T04:35:21;20.30;77.60
38746;DHT22;24488;0.000;0.000;2022-11-15T04:37:46;20.20;77.30
38746;DHT22;24488;0.000;0.000;2022-11-15T04:40:12;20.40;77.30
38746;DHT22;24488;0.000;0.000;2022-11-15T04:42:37;20.20;77.10
38746;DHT22;24488;0.000;0.000;2022-11-15T04:45:06;20.50;77.30
38746;DHT22;24488;0.000;0.000;2022-11-15T04:47:32;20.20;77.10
38746;DHT22;24488;0.000;0.000;2022-11-15T04:49:58;20.40;77.20
38746;DHT22;24488;0.000;0.000;2022-11-15T04:54:49;20.20;76.50
38746;DHT22;24488;0.000;0.000;2022-11-15T04:57:15;20.30;77.10
38746;DHT22;24488;0.000;0.000;2022-11-15T04:59:40;20.40;77.20
38746;DHT22;24488;0.000;0.000;2022-11-15T05:02:06;20.30;77.30
38746;DHT22;24488;0.000;0.000;2022-11-15T05:04:31;20.20;77.10
38746;DHT22;24488;0.000;0.000;2022-11-15T05:06:57;20.30;77.20
38746;DHT22;24488;0.000;0.000;2022-11-15T05:11:48;19.90;76.20
38746;DHT22;24488;0.000;0.000;2022-11-15T05:14:14;20.30;77.20
38746;DHT22;24488;0.000;0.000;2022-11-15T05:16:40;20.40;77.30
38746;DHT22;24488;0.000;0.000;2022-11-15T05:19:06;20.30;77.10
38746;DHT22;24488;0.000;0.000;2022-11-15T05:21:32;20.50;77.40
38746;DHT22;24488;0.000;0.000;2022-11-15T05:23:57;20.40;77.20
38746;DHT22;24488;0.000;0.000;2022-11-15T05:26:23;20.50;77.30
38746;DHT22;24488;0.000;0.000;2022-11-15T05:28:52;20.50;77.20
38746;DHT22;24488;0.000;0.000;2022-11-15T05:31:22;20.00;76.80
38746;DHT22;24488;0.000;0.000;2022-11-15T05:33:48;20.40;77.10
38746;DHT22;24488;0.000;0.000;2022-11-15T05:36:28;20.40;77.10
38746;DHT22;24488;0.000;0.000;2022-11-15T05:38:57;20.20;76.90
38746;DHT22;24488;0.000;0.000;2022-11-15T05:41:32;20.30;77.10
38746;DHT22;24488;0.000;0.000;2022-11-15T05:44:01;20.30;77.10
38746;DHT22;24488;0.000;0.000;2022-11-15T05:46:28;20.30;77.00
38746;DHT22;24488;0.000;0.000;2022-11-15T05:48:54;20.20;77.00
38746;DHT22;24488;0.000;0.000;2022-11-15T05:51:21;20.30;77.40
38746;DHT22;24488;0.000;0.000;2022-11-15T05:56:14;20.20;76.30
38746;DHT22;24488;0.000;0.000;2022-11-15T05:58:40;20.30;77.20
38746;DHT22;24488;0.000;0.000;2022-11-15T06:01:05;20.20;77.00
38746;DHT22;24488;0.000;0.000;2022-11-15T06:03:31;20.20;77.20
38746;DHT22;24488;0.000;0.000;2022-11-15T06:05:57;20.30;77.20
38746;DHT22;24488;0.000;0.000;2022-11-15T06:08:22;20.20;77.10
38746;DHT22;24488;0.000;0.000;2022-11-15T06:10:48;20.40;77.20
38746;DHT22;24488;0.000;0.000;2022-11-15T06:13:13;20.40;77.30
38746;DHT22;24488;0.000;0.000;2022-11-15T06:15:39;20.40;77.50
38746;DHT22;24488;0.000;0.000;2022-11-15T06:18:04;20.20;77.20
38746;DHT22;24488;0.000;0.000;2022-11-15T06:20:30;20.60;77.60
38746;DHT22;24488;0.000;0.000;2022-11-15T06:22:59;20.30;77.30
38746;DHT22;24488;0.000;0.000;2022-11-15T06:25:26;20.20;77.00
38746;DHT22;24488;0.000;0.000;2022-11-15T06:27:53;20.20;77.00
38746;DHT22;24488;0.000;0.000;2022-11-15T06:30:20;19.90;76.80
38746;DHT22;24488;0.000;0.000;2022-11-15T06:32:46;20.20;77.10
38746;DHT22;24488;0.000;0.000;2022-11-15T06:35:12;20.40;77.40
38746;DHT22;24488;0.000;0.000;2022-11-15T06:37:38;20.20;77.30
38746;DHT22;24488;0.000;0.000;2022-11-15T06:40:03;20.30;77.30
38746;DHT22;24488;0.000;0.000;2022-11-15T06:42:29;20.20;77.20
38746;DHT22;24488;0.000;0.000;2022-11-15T06:44:55;20.20;77.30
38746;DHT22;24488;0.000;0.000;2022-11-15T06:47:20;20.20;77.20
38746;DHT22;24488;0.000;0.000;2022-11-15T06:49:46;20.30;77.40
38746;DHT22;24488;0.000;0.000;2022-11-15T06:52:11;20.30;76.60
38746;DHT22;24488;0.000;0.000;2022-11-15T06:54:37;21.10;78.20
38746;DHT22;24488;0.000;0.000;2022-11-15T06:57:03;20.60;77.60
38746;DHT22;24488;0.000;0.000;2022-11-15T06:59:29;20.40;77.30
38746;DHT22;24488;0.000;0.000;2022-11-15T07:01:55;20.20;77.20
38746;DHT22;24488;0.000;0.000;2022-11-15T07:04:20;20.30;77.30
38746;DHT22;24488;0.000;0.000;2022-11-15T07:06:47;20.40;77.30
38746;DHT22;24488;0.000;0.000;2022-11-15T07:09:13;20.30;77.10
38746;DHT22;24488;0.000;0.000;2022-11-15T07:11:39;20.30;77.30
38746;DHT22;24488;0.000;0.000;2022-11-15T07:14:04;20.30;77.20
38746;DHT22;24488;0.000;0.000;2022-11-15T07:16:30;20.20;77.30
38746;DHT22;24488;0.000;0.000;2022-11-15T07:18:56;20.30;77.30
38746;DHT22;24488;0.000;0.000;2022-11-15T07:21:21;20.20;77.20
38746;DHT22;24488;0.000;0.000;2022-11-15T07:23:47;20.30;77.30
38746;DHT22;24488;0.000;0.000;2022-11-15T07:26:12;20.20;77.20
38746;DHT22;24488;0.000;0.000;2022-11-15T07:28:38;20.40;77.60
38746;DHT22;24488;0.000;0.000;2022-11-15T07:31:04;20.20;76.70
38746;DHT22;24488;0.000;0.000;2022-11-15T07:33:30;20.20;77.40
38746;DHT22;24488;0.000;0.000;2022-11-15T07:36:00;20.30;77.40
38746;DHT22;24488;0.000;0.000;2022-11-15T07:38:27;20.20;77.10
38746;DHT22;24488;0.000;0.000;2022-11-15T07:40:56;20.40;77.30
38746;DHT22;24488;0.000;0.000;2022-11-15T07:43:23;20.20;77.20
38746;DHT22;24488;0.000;0.000;2022-11-15T07:45:48;20.40;77.50
38746;DHT22;24488;0.000;0.000;2022-11-15T07:48:14;20.00;77.30
38746;DHT22;24488;0.000;0.000;2022-11-15T07:50:42;20.20;77.30
38746;DHT22;24488;0.000;0.000;2022-11-15T07:53:09;20.10;77.80
38746;DHT22;24488;0.000;0.000;2022-11-15T07:55:35;20.40;77.50
38746;DHT22;24488;0.000;0.000;2022-11-15T07:58:05;20.30;77.30
38746;DHT22;24488;0.000;0.000;2022-11-15T08:00:34;20.30;77.20
38746;DHT22;24488;0.000;0.000;2022-11-15T08:03:04;20.40;77.40
38746;DHT22;24488;0.000;0.000;2022-11-15T08:05:30;20.20;77.20
38746;DHT22;24488;0.000;0.000;2022-11-15T08:07:56;20.40;77.40
38746;DHT22;24488;0.000;0.000;2022-11-15T08:10:22;20.20;77.30
38746;DHT22;24488;0.000;0.000;2022-11-15T08:12:47;20.20;77.40
38746;DHT22;24488;0.000;0.000;2022-11-15T08:15:13;20.30;77.40
38746;DHT22;24488;0.000;0.000;2022-11-15T08:17:39;20.30;77.40
38746;DHT22;24488;0.000;0.000;2022-11-15T08:20:04;20.30;76.70
38746;DHT22;24488;0.000;0.000;2022-11-15T08:22:30;20.30;77.40
38746;DHT22;24488;0.000;0.000;2022-11-15T08:24:56;20.20;77.30
38746;DHT22;24488;0.000;0.000;2022-11-15T08:27:21;20.30;77.40
38746;DHT22;24488;0.000;0.000;2022-11-15T08:29:48;20.20;77.40
38746;DHT22;24488;0.000;0.000;2022-11-15T08:32:13;20.30;77.40
38746;DHT22;24488;0.000;0.000;2022-11-15T08:34:39;20.30;77.50
38746;DHT22;24488;0.000;0.000;2022-11-15T08:37:05;20.20;77.30
38746;DHT22;24488;0.000;0.000;2022-11-15T08:39:30;20.20;77.30
38746;DHT22;24488;0.000;0.000;2022-11-15T08:41:56;20.20;77.40
38746;DHT22;24488;0.000;0.000;2022-11-15T08:44:22;20.40;77.60
38746;DHT22;24488;0.000;0.000;2022-11-15T08:46:47;20.30;77.40
38746;DHT22;24488;0.000;0.000;2022-11-15T08:49:13;20.20;77.40
38746;DHT22;24488;0.000;0.000;2022-11-15T08:51:38;20.20;77.40
38746;DHT22;24488;0.000;0.000;2022-11-15T08:54:04;20.40;77.50
38746;DHT22;24488;0.000;0.000;2022-11-15T08:56:29;20.40;77.50
38746;DHT22;24488;0.000;0.000;2022-11-15T08:58:55;20.20;77.50
38746;DHT22;24488;0.000;0.000;2022-11-15T09:01:21;20.30;77.50
38746;DHT22;24488;0.000;0.000;2022-11-15T09:03:46;20.20;77.30
38746;DHT22;24488;0.000;0.000;2022-11-15T09:06:12;20.30;77.50
38746;DHT22;24488;0.000;0.000;2022-11-15T09:08:37;20.30;77.40
38746;DHT22;24488;0.000;0.000;2022-11-15T09:11:04;20.40;77.50
38746;DHT22;24488;0.000;0.000;2022-11-15T09:13:30;20.20;77.30
38746;DHT22;24488;0.000;0.000;2022-11-15T09:15:59;20.60;77.80
38746;DHT22;24488;0.000;0.000;2022-11-15T09:18:25;20.30;77.40
38746;DHT22;24488;0.000;0.000;2022-11-15T09:20:55;20.30;77.60
38746;DHT22;24488;0.000;0.000;2022-11-15T09:23:22;20.20;77.30
38746;DHT22;24488;0.000;0.000;2022-11-15T09:25:48;20.40;77.40
38746;DHT22;24488;0.000;0.000;2022-11-15T09:28:14;20.20;77.70
38746;DHT22;24488;0.000;0.000;2022-11-15T09:30:39;20.40;77.50
38746;DHT22;24488;0.000;0.000;2022-11-15T09:33:08;20.40;77.60
38746;DHT22;24488;0.000;0.000;2022-11-15T09:35:35;20.20;77.50
38746;DHT22;24488;0.000;0.000;2022-11-15T09:38:00;20.30;77.60
38746;DHT22;24488;0.000;0.000;2022-11-15T09:40:26;20.30;77.40
38746;DHT22;24488;0.000;0.000;2022-11-15T09:43:08;20.30;77.60
38746;DHT22;24488;0.000;0.000;2022-11-15T09:51:12;20.20;77.40
38746;DHT22;24488;0.000;0.000;2022-11-15T09:53:48;20.30;77.40
38746;DHT22;24488;0.000;0.000;2022-11-15T09:56:22;20.20;77.30
38746;DHT22;24488;0.000;0.000;2022-11-15T09:58:55;20.20;77.40
38746;DHT22;24488;0.000;0.000;2022-11-15T10:01:42;20.20;77.30
38746;DHT22;24488;0.000;0.000;2022-11-15T10:04:27;20.20;77.30
38746;DHT22;24488;0.000;0.000;2022-11-15T10:06:55;20.30;77.50
38746;DHT22;24488;0.000;0.000;2022-11-15T10:09:28;20.30;77.40
38746;DHT22;24488;0.000;0.000;2022-11-15T10:11:58;20.30;77.40
38746;DHT22;24488;0.000;0.000;2022-11-15T10:14:25;20.30;77.50
38746;DHT22;24488;0.000;0.000;2022-11-15T10:16:59;20.50;77.40
38746;DHT22;24488;0.000;0.000;2022-11-15T10:19:38;20.20;77.30
38746;DHT22;24488;0.000;0.000;2022-11-15T10:25:27;20.20;77.30
38746;DHT22;24488;0.000;0.000;2022-11-15T10:27:51;20.20;77.50
38746;DHT22;24488;0.000;0.000;2022-11-15T10:30:19;20.20;77.30
38746;DHT22;24488;0.000;0.000;2022-11-15T10:32:45;20.30;77.50
38746;DHT22;24488;0.000;0.000;2022-11-15T10:35:25;20.40;77.40
38746;DHT22;24488;0.000;0.000;2022-11-15T10:38:04;20.20;77.20
38746;DHT22;24488;0.000;0.000;2022-11-15T10:40:31;20.20;77.40
38746;DHT22;24488;0.000;0.000;2022-11-15T10:43:04;20.30;77.50
38746;DHT22;24488;0.000;0.000;2022-11-15T10:45:36;20.20;77.30
38746;DHT22;24488;0.000;0.000;2022-11-15T10:50:37;20.20;77.30
38746;DHT22;24488;0.000;0.000;2022-11-15T10:53:03;20.40;77.50
38746;DHT22;24488;0.000;0.000;2022-11-15T10:55:30;20.30;77.40
38746;DHT22;24488;0.000;0.000;2022-11-15T10:58:02;20.30;77.50
38746;DHT22;24488;0.000;0.000;2022-11-15T11:00:32;20.20;77.20
38746;DHT22;24488;0.000;0.000;2022-11-15T11:03:03;20.30;78.10
38746;DHT22;24488;0.000;0.000;2022-11-15T11:05:36;20.30;77.30
38746;DHT22;24488;0.000;0.000;2022-11-15T11:10:37;20.30;77.40
38746;DHT22;24488;0.000;0.000;2022-11-15T11:16:09;20.30;77.20
38746;DHT22;24488;0.000;0.000;2022-11-15T11:21:14;20.20;77.20
38746;DHT22;24488;0.000;0.000;2022-11-15T11:23:58;20.30;77.40
38746;DHT22;24488;0.000;0.000;2022-11-15T11:26:37;20.20;77.20
38746;DHT22;24488;0.000;0.000;2022-11-15T11:34:45;20.40;77.30
38746;DHT22;24488;0.000;0.000;2022-11-15T11:40:12;20.20;77.20
38746;DHT22;24488;0.000;0.000;2022-11-15T11:45:23;20.20;76.70
38746;DHT22;24488;0.000;0.000;2022-11-15T11:50:32;20.30;77.30
38746;DHT22;24488;0.000;0.000;2022-11-15T11:53:12;20.30;77.40
38746;DHT22;24488;0.000;0.000;2022-11-15T11:55:51;20.20;77.30
38746;DHT22;24488;0.000;0.000;2022-11-15T11:58:19;20.20;77.30
38746;DHT22;24488;0.000;0.000;2022-11-15T12:00:55;20.30;77.40
38746;DHT22;24488;0.000;0.000;2022-11-15T12:11:58;20.20;77.20
38746;DHT22;24488;0.000;0.000;2022-11-15T12:14:32;20.40;77.50
38746;DHT22;24488;0.000;0.000;2022-11-15T12:17:01;20.20;77.20
38746;DHT22;24488;0.000;0.000;2022-11-15T12:19:28;20.30;77.40
38746;DHT22;24488;0.000;0.000;2022-11-15T12:24:41;20.20;77.20
38746;DHT22;24488;0.000;0.000;2022-11-15T12:27:15;20.30;77.30
38746;DHT22;24488;0.000;0.000;2022-11-15T12:29:48;20.10;77.20
38746;DHT22;24488;0.000;0.000;2022-11-15T12:32:39;20.30;77.40
38746;DHT22;24488;0.000;0.000;2022-11-15T12:35:04;20.30;77.40
38746;DHT22;24488;0.000;0.000;2022-11-15T12:42:35;20.20;77.30
38746;DHT22;24488;0.000;0.000;2022-11-15T12:47:56;20.20;77.20
38746;DHT22;24488;0.000;0.000;2022-11-15T13:06:43;20.20;76.70
38746;DHT22;24488;0.000;0.000;2022-11-15T13:11:58;20.20;77.20
38746;DHT22;24488;0.000;0.000;2022-11-15T13:17:03;20.20;76.70
38746;DHT22;24488;0.000;0.000;2022-11-15T13:19:47;20.30;77.40
38746;DHT22;24488;0.000;0.000;2022-11-15T13:22:14;20.40;77.40
38746;DHT22;24488;0.000;0.000;2022-11-15T13:25:00;20.40;77.30
38746;DHT22;24488;0.000;0.000;2022-11-15T13:27:26;20.30;77.40
38746;DHT22;24488;0.000;0.000;2022-11-15T13:29:52;20.40;77.50
38746;DHT22;24488;0.000;0.000;2022-11-15T13:32:18;20.50;77.50
38746;DHT22;24488;0.000;0.000;2022-11-15T13:34:44;20.30;77.60
38746;DHT22;24488;0.000;0.000;2022-11-15T13:39:45;20.20;77.20
38746;DHT22;24488;0.000;0.000;2022-11-15T13:42:15;20.50;77.50
38746;DHT22;24488;0.000;0.000;2022-11-15T13:44:53;20.20;77.20
38746;DHT22;24488;0.000;0.000;2022-11-15T13:47:20;20.30;77.30
38746;DHT22;24488;0.000;0.000;2022-11-15T13:49:46;20.30;77.40
38746;DHT22;24488;0.000;0.000;2022-11-15T13:52:13;20.20;77.30
38746;DHT22;24488;0.000;0.000;2022-11-15T13:54:41;20.40;77.50
38746;DHT22;24488;0.000;0.000;2022-11-15T13:59:47;20.30;77.20
38746;DHT22;24488;0.000;0.000;2022-11-15T14:02:18;20.30;77.40
38746;DHT22;24488;0.000;0.000;2022-11-15T14:04:57;20.40;77.30
38746;DHT22;24488;0.000;0.000;2022-11-15T14:07:25;20.20;77.30
38746;DHT22;24488;0.000;0.000;2022-11-15T14:09:53;20.40;77.40
38746;DHT22;24488;0.000;0.000;2022-11-15T14:12:29;20.30;77.40
38746;DHT22;24488;0.000;0.000;2022-11-15T14:14:55;20.30;77.20
38746;DHT22;24488;0.000;0.000;2022-11-15T14:19:56;20.20;77.20
38746;DHT22;24488;0.000;0.000;2022-11-15T14:27:41;21.10;77.70
38746;DHT22;24488;0.000;0.000;2022-11-15T14:30:25;20.50;77.50
38746;DHT22;24488;0.000;0.000;2022-11-15T14:32:50;20.50;77.60
38746;DHT22;24488;0.000;0.000;2022-11-15T14:35:17;19.80;77.00
38746;DHT22;24488;0.000;0.000;2022-11-15T14:37:44;20.30;77.30
38746;DHT22;24488;0.000;0.000;2022-11-15T14:40:12;20.40;77.90
38746;DHT22;24488;0.000;0.000;2022-11-15T14:42:39;20.20;77.20
38746;DHT22;24488;0.000;0.000;2022-11-15T14:45:38;20.30;77.50
38746;DHT22;24488;0.000;0.000;2022-11-15T14:47:57;20.30;77.20
38746;DHT22;24488;0.000;0.000;2022-11-15T14:50:22;20.20;77.30
38746;DHT22;24488;0.000;0.000;2022-11-15T14:52:48;20.30;77.40
38746;DHT22;24488;0.000;0.000;2022-11-15T14:57:57;20.30;77.30
38746;DHT22;24488;0.000;0.000;2022-11-15T15:00:23;20.40;77.30
38746;DHT22;24488;0.000;0.000;2022-11-15T15:02:50;20.20;77.40
38746;DHT22;24488;0.000;0.000;2022-11-15T15:05:22;20.30;77.30
38746;DHT22;24488;0.000;0.000;2022-11-15T15:07:49;20.20;77.30
38746;DHT22;24488;0.000;0.000;2022-11-15T15:10:15;20.40;77.40
38746;DHT22;24488;0.000;0.000;2022-11-15T15:12:41;20.30;77.40
38746;DHT22;24488;0.000;0.000;2022-11-15T15:15:26;20.40;77.40
38746;DHT22;24488;0.000;0.000;2022-11-15T15:17:57;20.20;77.30
38746;DHT22;24488;0.000;0.000;2022-11-15T15:20:22;20.40;77.60
38746;DHT22;24488;0.000;0.000;2022-11-15T15:22:48;20.30;77.40
38746;DHT22;24488;0.000;0.000;2022-11-15T15:25:27;20.50;77.80
38746;DHT22;24488;0.000;0.000;2022-11-15T15:27:54;20.30;77.20
38746;DHT22;24488;0.000;0.000;2022-11-15T15:30:21;20.30;77.40
38746;DHT22;24488;0.000;0.000;2022-11-15T15:32:47;20.60;77.60
38746;DHT22;24488;0.000;0.000;2022-11-15T15:35:13;20.30;77.40
38746;DHT22;24488;0.000;0.000;2022-11-15T15:37:40;20.20;77.30
38746;DHT22;24488;0.000;0.000;2022-11-15T15:40:25;20.50;77.40
38746;DHT22;24488;0.000;0.000;2022-11-15T15:42:51;20.20;77.20
38746;DHT22;24488;0.000;0.000;2022-11-15T15:45:17;20.30;77.50
38746;DHT22;24488;0.000;0.000;2022-11-15T15:52:53;20.30;77.30
38746;DHT22;24488;0.000;0.000;2022-11-15T15:55:20;20.30;76.70
38746;DHT22;24488;0.000;0.000;2022-11-15T15:57:46;20.30;77.40
38746;DHT22;24488;0.000;0.000;2022-11-15T16:00:12;20.20;77.30
38746;DHT22;24488;0.000;0.000;2022-11-15T16:02:39;20.20;77.40
38746;DHT22;24488;0.000;0.000;2022-11-15T16:05:05;20.30;77.40
38746;DHT22;24488;0.000;0.000;2022-11-15T16:07:31;20.30;77.50
38746;DHT22;24488;0.000;0.000;2022-11-15T16:12:33;20.30;76.80
38746;DHT22;24488;0.000;0.000;2022-11-15T16:14:59;20.30;77.40
38746;DHT22;24488;0.000;0.000;2022-11-15T16:17:32;20.30;77.50
38746;DHT22;24488;0.000;0.000;2022-11-15T16:19:59;20.30;77.40
38746;DHT22;24488;0.000;0.000;2022-11-15T16:24:51;20.30;76.90
38746;DHT22;24488;0.000;0.000;2022-11-15T16:27:18;20.20;77.60
38746;DHT22;24488;0.000;0.000;2022-11-15T16:29:44;20.30;77.60
38746;DHT22;24488;0.000;0.000;2022-11-15T16:32:10;20.30;77.50
38746;DHT22;24488;0.000;0.000;2022-11-15T16:34:36;20.30;77.70
38746;DHT22;24488;0.000;0.000;2022-11-15T16:37:02;20.30;77.40
38746;DHT22;24488;0.000;0.000;2022-11-15T16:39:28;20.30;77.70
38746;DHT22;24488;0.000;0.000;2022-11-15T16:41:56;20.30;77.10
38746;DHT22;24488;0.000;0.000;2022-11-15T16:44:22;20.40;77.80
38746;DHT22;24488;0.000;0.000;2022-11-15T16:46:49;20.20;77.90
38746;DHT22;24488;0.000;0.000;2022-11-15T16:49:16;20.30;78.20
38746;DHT22;24488;0.000;0.000;2022-11-15T16:51:46;20.30;78.20
38746;DHT22;24488;0.000;0.000;2022-11-15T16:54:13;20.30;77.90
38746;DHT22;24488;0.000;0.000;2022-11-15T16:56:39;20.50;78.20
38746;DHT22;24488;0.000;0.000;2022-11-15T16:59:04;20.50;78.10
38746;DHT22;24488;0.000;0.000;2022-11-15T17:01:31;20.70;78.60
38746;DHT22;24488;0.000;0.000;2022-11-15T17:03:58;20.40;78.30
38746;DHT22;24488;0.000;0.000;2022-11-15T17:06:24;20.20;78.40
38746;DHT22;24488;0.000;0.000;2022-11-15T17:08:50;20.40;78.50
38746;DHT22;24488;0.000;0.000;2022-11-15T17:11:18;20.20;78.40
38746;DHT22;24488;0.000;0.000;2022-11-15T17:13:45;20.10;79.10
38746;DHT22;24488;0.000;0.000;2022-11-15T17:16:11;20.20;78.40
38746;DHT22;24488;0.000;0.000;2022-11-15T17:18:38;20.50;78.60
38746;DHT22;24488;0.000;0.000;2022-11-15T17:21:05;20.20;78.60
38746;DHT22;24488;0.000;0.000;2022-11-15T17:23:32;20.10;78.90
38746;DHT22;24488;0.000;0.000;2022-11-15T17:25:59;20.10;78.70
38746;DHT22;24488;0.000;0.000;2022-11-15T17:28:27;20.30;78.80
38746;DHT22;24488;0.000;0.000;2022-11-15T17:30:53;20.10;79.00
38746;DHT22;24488;0.000;0.000;2022-11-15T17:33:18;20.20;79.20
38746;DHT22;24488;0.000;0.000;2022-11-15T17:35:44;20.10;79.20
38746;DHT22;24488;0.000;0.000;2022-11-15T17:38:09;20.20;79.20
38746;DHT22;24488;0.000;0.000;2022-11-15T17:40:35;20.20;79.70
38746;DHT22;24488;0.000;0.000;2022-11-15T17:43:00;20.10;79.60
38746;DHT22;24488;0.000;0.000;2022-11-15T17:45:26;20.10;79.60
38746;DHT22;24488;0.000;0.000;2022-11-15T17:47:52;20.30;79.90
38746;DHT22;24488;0.000;0.000;2022-11-15T17:50:18;20.00;79.80
38746;DHT22;24488;0.000;0.000;2022-11-15T17:52:43;20.10;80.00
38746;DHT22;24488;0.000;0.000;2022-11-15T17:55:09;20.00;79.50
38746;DHT22;24488;0.000;0.000;2022-11-15T17:57:34;19.90;79.80
38746;DHT22;24488;0.000;0.000;2022-11-15T18:00:00;20.10;79.60
38746;DHT22;24488;0.000;0.000;2022-11-15T18:02:25;19.80;79.50
38746;DHT22;24488;0.000;0.000;2022-11-15T18:04:51;20.10;79.60
38746;DHT22;24488;0.000;0.000;2022-11-15T18:07:17;20.10;79.70